sensor_id;sensor_type;location;lat;lon;timestamp;P1;durP1;ratioP1;P2;durP2;ratioP2
53801;SDS011;39709;53.334;6.534;2023-03-17T00:01:37;2.90;;;0.57;;
53801;SDS011;39709;53.334;6.534;2023-03-17T00:04:03;3.00;;;0.67;;
53801;SDS011;39709;53.334;6.534;2023-03-17T00:06:30;5.53;;;1.13;;
53801;SDS011;39709;53.334;6.534;2023-03-17T00:08:58;6.55;;;2.30;;
53801;SDS011;39709;53.334;6.534;2023-03-17T00:11:25;3.00;;;0.73;;
53801;SDS011;39709;53.334;6.534;2023-03-17T00:13:51;1.60;;;0.40;;
53801;SDS011;39709;53.334;6.534;2023-03-17T00:16:21;2.42;;;0.40;;
53801;SDS011;39709;53.334;6.534;2023-03-17T00:18:49;3.28;;;0.80;;
53801;SDS011;39709;53.334;6.534;2023-03-17T00:21:22;4.23;;;1.43;;
53801;SDS011;39709;53.334;6.534;2023-03-17T00:23:52;5.88;;;2.00;;
53801;SDS011;39709;53.334;6.534;2023-03-17T00:26:19;6.82;;;1.98;;
53801;SDS011;39709;53.334;6.534;2023-03-17T00:28:44;3.40;;;0.43;;
53801;SDS011;39709;53.334;6.534;2023-03-17T00:31:14;4.37;;;1.20;;
53801;SDS011;39709;53.334;6.534;2023-03-17T00:33:48;1.83;;;0.40;;
53801;SDS011;39709;53.334;6.534;2023-03-17T00:36:17;2.55;;;0.40;;
53801;SDS011;39709;53.334;6.534;2023-03-17T00:38:46;2.03;;;0.45;;
53801;SDS011;39709;53.334;6.534;2023-03-17T00:41:12;5.22;;;1.05;;
53801;SDS011;39709;53.334;6.534;2023-03-17T00:43:38;6.60;;;2.27;;
53801;SDS011;39709;53.334;6.534;2023-03-17T00:46:12;3.47;;;1.02;;
53801;SDS011;39709;53.334;6.534;2023-03-17T00:48:51;6.10;;;1.75;;
53801;SDS011;39709;53.334;6.534;2023-03-17T00:51:17;3.23;;;1.03;;
53801;SDS011;39709;53.334;6.534;2023-03-17T00:53:42;4.43;;;1.50;;
53801;SDS011;39709;53.334;6.534;2023-03-17T00:56:12;4.23;;;1.30;;
53801;SDS011;39709;53.334;6.534;2023-03-17T00:58:39;2.67;;;0.85;;
53801;SDS011;39709;53.334;6.534;2023-03-17T01:01:06;6.53;;;2.20;;
53801;SDS011;39709;53.334;6.534;2023-03-17T01:03:32;5.72;;;1.50;;
53801;SDS011;39709;53.334;6.534;2023-03-17T01:05:59;3.13;;;0.67;;
53801;SDS011;39709;53.334;6.534;2023-03-17T01:08:26;2.17;;;0.40;;
53801;SDS011;39709;53.334;6.534;2023-03-17T01:10:54;3.50;;;0.98;;
53801;SDS011;39709;53.334;6.534;2023-03-17T01:13:20;3.83;;;1.13;;
53801;SDS011;39709;53.334;6.534;2023-03-17T01:15:47;3.42;;;0.95;;
53801;SDS011;39709;53.334;6.534;2023-03-17T01:18:15;4.67;;;1.63;;
53801;SDS011;39709;53.334;6.534;2023-03-17T01:20:42;2.85;;;0.80;;
53801;SDS011;39709;53.334;6.534;2023-03-17T01:23:08;6.22;;;2.08;;
53801;SDS011;39709;53.334;6.534;2023-03-17T01:25:36;4.65;;;1.35;;
53801;SDS011;39709;53.334;6.534;2023-03-17T01:28:03;6.35;;;0.82;;
53801;SDS011;39709;53.334;6.534;2023-03-17T01:30:36;5.53;;;1.23;;
53801;SDS011;39709;53.334;6.534;2023-03-17T01:33:04;2.08;;;0.50;;
53801;SDS011;39709;53.334;6.534;2023-03-17T01:35:33;4.60;;;1.60;;
53801;SDS011;39709;53.334;6.534;2023-03-17T01:37:59;5.22;;;1.50;;
53801;SDS011;39709;53.334;6.534;2023-03-17T01:40:27;4.60;;;1.02;;
53801;SDS011;39709;53.334;6.534;2023-03-17T01:48:35;5.57;;;1.75;;
53801;SDS011;39709;53.334;6.534;2023-03-17T01:51:04;8.30;;;2.50;;
53801;SDS011;39709;53.334;6.534;2023-03-17T01:53:31;7.53;;;2.22;;
53801;SDS011;39709;53.334;6.534;2023-03-17T01:55:59;6.37;;;1.80;;
53801;SDS011;39709;53.334;6.534;2023-03-17T01:58:27;6.93;;;1.40;;
53801;SDS011;39709;53.334;6.534;2023-03-17T02:00:53;8.13;;;2.08;;
53801;SDS011;39709;53.334;6.534;2023-03-17T02:03:19;4.75;;;1.65;;
53801;SDS011;39709;53.334;6.534;2023-03-17T02:05:49;8.35;;;2.50;;
53801;SDS011;39709;53.334;6.534;2023-03-17T02:08:17;8.27;;;2.27;;
53801;SDS011;39709;53.334;6.534;2023-03-17T02:10:43;6.30;;;2.20;;
53801;SDS011;39709;53.334;6.534;2023-03-17T02:13:13;5.75;;;1.65;;
53801;SDS011;39709;53.334;6.534;2023-03-17T02:15:42;6.80;;;2.10;;
53801;SDS011;39709;53.334;6.534;2023-03-17T02:18:10;5.17;;;1.57;;
53801;SDS011;39709;53.334;6.534;2023-03-17T02:23:02;6.32;;;1.80;;
53801;SDS011;39709;53.334;6.534;2023-03-17T02:25:30;2.15;;;0.45;;
53801;SDS011;39709;53.334;6.534;2023-03-17T02:28:00;6.57;;;1.90;;
53801;SDS011;39709;53.334;6.534;2023-03-17T02:30:35;5.57;;;1.70;;
53801;SDS011;39709;53.334;6.534;2023-03-17T02:33:01;1.20;;;0.30;;
53801;SDS011;39709;53.334;6.534;2023-03-17T02:35:27;5.00;;;1.70;;
53801;SDS011;39709;53.334;6.534;2023-03-17T02:37:54;3.88;;;0.80;;
53801;SDS011;39709;53.334;6.534;2023-03-17T02:40:20;4.10;;;1.07;;
53801;SDS011;39709;53.334;6.534;2023-03-17T02:42:47;4.15;;;0.30;;
53801;SDS011;39709;53.334;6.534;2023-03-17T02:45:13;4.78;;;1.48;;
53801;SDS011;39709;53.334;6.534;2023-03-17T02:47:39;3.73;;;0.90;;
53801;SDS011;39709;53.334;6.534;2023-03-17T02:50:07;2.13;;;0.40;;
53801;SDS011;39709;53.334;6.534;2023-03-17T02:52:37;6.60;;;2.30;;
53801;SDS011;39709;53.334;6.534;2023-03-17T02:55:03;4.43;;;1.40;;
53801;SDS011;39709;53.334;6.534;2023-03-17T02:57:29;3.60;;;0.80;;
53801;SDS011;39709;53.334;6.534;2023-03-17T02:59:55;1.67;;;0.30;;
53801;SDS011;39709;53.334;6.534;2023-03-17T03:02:21;4.50;;;0.70;;
53801;SDS011;39709;53.334;6.534;2023-03-17T03:04:46;2.15;;;0.30;;
53801;SDS011;39709;53.334;6.534;2023-03-17T03:07:12;4.83;;;1.23;;
53801;SDS011;39709;53.334;6.534;2023-03-17T03:09:38;6.30;;;1.80;;
53801;SDS011;39709;53.334;6.534;2023-03-17T03:12:04;5.90;;;2.33;;
53801;SDS011;39709;53.334;6.534;2023-03-17T03:14:33;2.13;;;0.32;;
53801;SDS011;39709;53.334;6.534;2023-03-17T03:16:59;1.80;;;0.45;;
53801;SDS011;39709;53.334;6.534;2023-03-17T03:19:25;6.43;;;2.57;;
53801;SDS011;39709;53.334;6.534;2023-03-17T03:21:51;5.70;;;1.73;;
53801;SDS011;39709;53.334;6.534;2023-03-17T03:24:17;5.93;;;1.25;;
53801;SDS011;39709;53.334;6.534;2023-03-17T03:26:42;7.87;;;2.10;;
53801;SDS011;39709;53.334;6.534;2023-03-17T03:29:08;6.20;;;1.92;;
53801;SDS011;39709;53.334;6.534;2023-03-17T03:31:34;7.63;;;1.57;;
53801;SDS011;39709;53.334;6.534;2023-03-17T03:34:00;5.05;;;1.23;;
53801;SDS011;39709;53.334;6.534;2023-03-17T03:36:25;3.20;;;0.83;;
53801;SDS011;39709;53.334;6.534;2023-03-17T03:38:51;7.75;;;1.52;;
53801;SDS011;39709;53.334;6.534;2023-03-17T03:41:17;4.22;;;0.90;;
53801;SDS011;39709;53.334;6.534;2023-03-17T03:43:43;6.63;;;2.00;;
53801;SDS011;39709;53.334;6.534;2023-03-17T03:46:08;7.72;;;2.35;;
53801;SDS011;39709;53.334;6.534;2023-03-17T03:48:34;2.90;;;0.87;;
53801;SDS011;39709;53.334;6.534;2023-03-17T03:51:00;3.50;;;0.95;;
53801;SDS011;39709;53.334;6.534;2023-03-17T03:53:27;7.30;;;1.57;;
53801;SDS011;39709;53.334;6.534;2023-03-17T03:55:53;5.43;;;1.38;;
53801;SDS011;39709;53.334;6.534;2023-03-17T03:58:20;7.53;;;2.70;;
53801;SDS011;39709;53.334;6.534;2023-03-17T04:00:45;2.03;;;0.65;;
53801;SDS011;39709;53.334;6.534;2023-03-17T04:03:12;5.70;;;2.23;;
53801;SDS011;39709;53.334;6.534;2023-03-17T04:05:38;7.78;;;2.42;;
53801;SDS011;39709;53.334;6.534;2023-03-17T04:08:04;2.92;;;0.82;;
53801;SDS011;39709;53.334;6.534;2023-03-17T04:10:31;1.60;;;0.35;;
53801;SDS011;39709;53.334;6.534;2023-03-17T04:12:57;3.63;;;0.87;;
53801;SDS011;39709;53.334;6.534;2023-03-17T04:15:22;2.47;;;0.60;;
53801;SDS011;39709;53.334;6.534;2023-03-17T04:17:48;6.30;;;1.83;;
53801;SDS011;39709;53.334;6.534;2023-03-17T04:20:15;5.63;;;1.53;;
53801;SDS011;39709;53.334;6.534;2023-03-17T04:22:42;6.03;;;1.90;;
53801;SDS011;39709;53.334;6.534;2023-03-17T04:25:09;1.35;;;0.30;;
53801;SDS011;39709;53.334;6.534;2023-03-17T04:27:36;5.05;;;1.00;;
53801;SDS011;39709;53.334;6.534;2023-03-17T04:30:02;5.40;;;1.60;;
53801;SDS011;39709;53.334;6.534;2023-03-17T04:32:28;3.27;;;0.97;;
53801;SDS011;39709;53.334;6.534;2023-03-17T04:34:54;8.38;;;2.30;;
53801;SDS011;39709;53.334;6.534;2023-03-17T04:37:20;5.60;;;1.63;;
53801;SDS011;39709;53.334;6.534;2023-03-17T04:39:45;4.97;;;1.67;;
53801;SDS011;39709;53.334;6.534;2023-03-17T04:42:11;4.72;;;1.58;;
53801;SDS011;39709;53.334;6.534;2023-03-17T04:44:37;7.40;;;2.00;;
53801;SDS011;39709;53.334;6.534;2023-03-17T04:47:03;2.92;;;0.73;;
53801;SDS011;39709;53.334;6.534;2023-03-17T04:49:29;3.75;;;1.38;;
53801;SDS011;39709;53.334;6.534;2023-03-17T04:51:55;4.60;;;1.40;;
53801;SDS011;39709;53.334;6.534;2023-03-17T04:54:21;5.55;;;1.10;;
53801;SDS011;39709;53.334;6.534;2023-03-17T04:56:47;2.33;;;0.50;;
53801;SDS011;39709;53.334;6.534;2023-03-17T04:59:13;9.40;;;2.47;;
53801;SDS011;39709;53.334;6.534;2023-03-17T05:01:38;6.97;;;2.10;;
53801;SDS011;39709;53.334;6.534;2023-03-17T05:04:04;4.80;;;1.33;;
53801;SDS011;39709;53.334;6.534;2023-03-17T05:06:30;7.22;;;2.03;;
53801;SDS011;39709;53.334;6.534;2023-03-17T05:08:56;1.80;;;0.50;;
53801;SDS011;39709;53.334;6.534;2023-03-17T05:11:22;3.67;;;1.05;;
53801;SDS011;39709;53.334;6.534;2023-03-17T05:13:48;5.60;;;1.48;;
53801;SDS011;39709;53.334;6.534;2023-03-17T05:16:13;2.83;;;0.50;;
53801;SDS011;39709;53.334;6.534;2023-03-17T05:18:39;1.92;;;0.45;;
53801;SDS011;39709;53.334;6.534;2023-03-17T05:21:06;5.07;;;1.38;;
53801;SDS011;39709;53.334;6.534;2023-03-17T05:23:32;1.27;;;0.40;;
53801;SDS011;39709;53.334;6.534;2023-03-17T05:25:58;3.47;;;1.23;;
53801;SDS011;39709;53.334;6.534;2023-03-17T05:28:24;2.63;;;0.50;;
53801;SDS011;39709;53.334;6.534;2023-03-17T05:30:51;3.20;;;0.95;;
53801;SDS011;39709;53.334;6.534;2023-03-17T05:33:17;6.22;;;1.90;;
53801;SDS011;39709;53.334;6.534;2023-03-17T05:35:44;2.75;;;0.82;;
53801;SDS011;39709;53.334;6.534;2023-03-17T05:38:11;1.80;;;0.30;;
53801;SDS011;39709;53.334;6.534;2023-03-17T05:40:39;1.53;;;0.40;;
53801;SDS011;39709;53.334;6.534;2023-03-17T05:43:05;2.97;;;0.30;;
53801;SDS011;39709;53.334;6.534;2023-03-17T05:45:31;4.97;;;1.55;;
53801;SDS011;39709;53.334;6.534;2023-03-17T05:47:57;1.70;;;0.30;;
53801;SDS011;39709;53.334;6.534;2023-03-17T05:50:23;1.73;;;0.40;;
53801;SDS011;39709;53.334;6.534;2023-03-17T05:52:50;2.53;;;0.50;;
53801;SDS011;39709;53.334;6.534;2023-03-17T05:55:16;2.88;;;0.60;;
53801;SDS011;39709;53.334;6.534;2023-03-17T05:57:43;2.15;;;0.55;;
53801;SDS011;39709;53.334;6.534;2023-03-17T06:00:09;3.63;;;1.05;;
53801;SDS011;39709;53.334;6.534;2023-03-17T06:02:36;2.43;;;0.60;;
53801;SDS011;39709;53.334;6.534;2023-03-17T06:05:03;6.03;;;1.67;;
53801;SDS011;39709;53.334;6.534;2023-03-17T06:07:30;3.40;;;1.05;;
53801;SDS011;39709;53.334;6.534;2023-03-17T06:09:56;5.70;;;1.50;;
53801;SDS011;39709;53.334;6.534;2023-03-17T06:12:22;1.43;;;0.33;;
53801;SDS011;39709;53.334;6.534;2023-03-17T06:14:47;6.78;;;1.70;;
53801;SDS011;39709;53.334;6.534;2023-03-17T06:17:13;6.00;;;1.67;;
53801;SDS011;39709;53.334;6.534;2023-03-17T06:19:39;8.27;;;2.00;;
53801;SDS011;39709;53.334;6.534;2023-03-17T06:22:05;4.00;;;0.90;;
53801;SDS011;39709;53.334;6.534;2023-03-17T06:24:31;5.97;;;2.15;;
53801;SDS011;39709;53.334;6.534;2023-03-17T06:26:57;6.10;;;2.25;;
53801;SDS011;39709;53.334;6.534;2023-03-17T06:29:23;2.97;;;0.73;;
53801;SDS011;39709;53.334;6.534;2023-03-17T06:31:49;6.27;;;1.50;;
53801;SDS011;39709;53.334;6.534;2023-03-17T06:34:18;3.17;;;0.88;;
53801;SDS011;39709;53.334;6.534;2023-03-17T06:36:45;2.97;;;0.80;;
53801;SDS011;39709;53.334;6.534;2023-03-17T06:39:12;5.78;;;1.80;;
53801;SDS011;39709;53.334;6.534;2023-03-17T06:41:39;8.80;;;2.47;;
53801;SDS011;39709;53.334;6.534;2023-03-17T06:44:05;4.95;;;0.63;;
53801;SDS011;39709;53.334;6.534;2023-03-17T06:46:32;1.52;;;0.40;;
53801;SDS011;39709;53.334;6.534;2023-03-17T06:48:59;3.10;;;0.60;;
53801;SDS011;39709;53.334;6.534;2023-03-17T06:51:25;3.28;;;0.77;;
53801;SDS011;39709;53.334;6.534;2023-03-17T06:53:51;11.37;;;4.53;;
53801;SDS011;39709;53.334;6.534;2023-03-17T06:56:17;6.05;;;2.13;;
53801;SDS011;39709;53.334;6.534;2023-03-17T06:58:44;6.85;;;2.30;;
53801;SDS011;39709;53.334;6.534;2023-03-17T07:01:11;5.07;;;1.13;;
53801;SDS011;39709;53.334;6.534;2023-03-17T07:03:38;4.60;;;1.02;;
53801;SDS011;39709;53.334;6.534;2023-03-17T07:06:04;2.70;;;0.80;;
53801;SDS011;39709;53.334;6.534;2023-03-17T07:08:30;3.03;;;0.45;;
53801;SDS011;39709;53.334;6.534;2023-03-17T07:10:58;4.28;;;1.27;;
53801;SDS011;39709;53.334;6.534;2023-03-17T07:13:24;6.32;;;1.95;;
53801;SDS011;39709;53.334;6.534;2023-03-17T07:15:50;15.23;;;11.35;;
53801;SDS011;39709;53.334;6.534;2023-03-17T07:18:16;10.87;;;6.90;;
53801;SDS011;39709;53.334;6.534;2023-03-17T07:20:42;8.88;;;2.70;;
53801;SDS011;39709;53.334;6.534;2023-03-17T07:23:19;4.35;;;1.33;;
53801;SDS011;39709;53.334;6.534;2023-03-17T07:25:46;2.35;;;0.60;;
53801;SDS011;39709;53.334;6.534;2023-03-17T07:28:12;2.50;;;0.50;;
53801;SDS011;39709;53.334;6.534;2023-03-17T07:30:40;3.30;;;0.77;;
53801;SDS011;39709;53.334;6.534;2023-03-17T07:33:11;3.08;;;0.57;;
53801;SDS011;39709;53.334;6.534;2023-03-17T07:35:37;4.47;;;1.60;;
53801;SDS011;39709;53.334;6.534;2023-03-17T07:38:03;3.60;;;1.13;;
53801;SDS011;39709;53.334;6.534;2023-03-17T07:40:29;6.80;;;2.50;;
53801;SDS011;39709;53.334;6.534;2023-03-17T07:42:55;3.05;;;0.70;;
53801;SDS011;39709;53.334;6.534;2023-03-17T07:45:21;13.98;;;5.47;;
53801;SDS011;39709;53.334;6.534;2023-03-17T07:47:47;11.47;;;4.77;;
53801;SDS011;39709;53.334;6.534;2023-03-17T07:50:13;10.32;;;3.55;;
53801;SDS011;39709;53.334;6.534;2023-03-17T07:52:39;5.30;;;1.65;;
53801;SDS011;39709;53.334;6.534;2023-03-17T07:55:06;7.80;;;3.00;;
53801;SDS011;39709;53.334;6.534;2023-03-17T07:57:34;7.57;;;2.22;;
53801;SDS011;39709;53.334;6.534;2023-03-17T08:00:01;6.55;;;2.60;;
53801;SDS011;39709;53.334;6.534;2023-03-17T08:02:28;9.00;;;2.75;;
53801;SDS011;39709;53.334;6.534;2023-03-17T08:04:54;7.40;;;2.87;;
53801;SDS011;39709;53.334;6.534;2023-03-17T08:07:21;9.00;;;2.75;;
53801;SDS011;39709;53.334;6.534;2023-03-17T08:09:46;7.20;;;2.60;;
53801;SDS011;39709;53.334;6.534;2023-03-17T08:12:12;7.63;;;2.20;;
53801;SDS011;39709;53.334;6.534;2023-03-17T08:14:38;7.30;;;1.88;;
53801;SDS011;39709;53.334;6.534;2023-03-17T08:17:05;9.20;;;2.70;;
53801;SDS011;39709;53.334;6.534;2023-03-17T08:19:31;7.25;;;2.55;;
53801;SDS011;39709;53.334;6.534;2023-03-17T08:21:57;7.03;;;2.53;;
53801;SDS011;39709;53.334;6.534;2023-03-17T08:24:23;7.97;;;2.00;;
53801;SDS011;39709;53.334;6.534;2023-03-17T08:26:50;15.55;;;6.95;;
53801;SDS011;39709;53.334;6.534;2023-03-17T08:29:16;28.93;;;12.30;;
53801;SDS011;39709;53.334;6.534;2023-03-17T08:31:43;13.95;;;5.65;;
53801;SDS011;39709;53.334;6.534;2023-03-17T08:34:09;3.42;;;0.93;;
53801;SDS011;39709;53.334;6.534;2023-03-17T08:36:34;3.53;;;0.80;;
53801;SDS011;39709;53.334;6.534;2023-03-17T08:39:00;6.18;;;1.92;;
53801;SDS011;39709;53.334;6.534;2023-03-17T08:41:26;2.03;;;0.57;;
53801;SDS011;39709;53.334;6.534;2023-03-17T08:43:52;2.87;;;0.60;;
53801;SDS011;39709;53.334;6.534;2023-03-17T08:46:22;3.17;;;0.50;;
53801;SDS011;39709;53.334;6.534;2023-03-17T08:48:51;6.47;;;1.67;;
53801;SDS011;39709;53.334;6.534;2023-03-17T08:51:19;6.88;;;2.13;;
53801;SDS011;39709;53.334;6.534;2023-03-17T08:53:47;6.75;;;2.67;;
53801;SDS011;39709;53.334;6.534;2023-03-17T08:56:13;3.80;;;0.60;;
53801;SDS011;39709;53.334;6.534;2023-03-17T08:58:39;6.00;;;2.50;;
53801;SDS011;39709;53.334;6.534;2023-03-17T09:01:06;1.65;;;0.38;;
53801;SDS011;39709;53.334;6.534;2023-03-17T09:03:33;6.65;;;1.70;;
53801;SDS011;39709;53.334;6.534;2023-03-17T09:06:00;2.80;;;0.60;;
53801;SDS011;39709;53.334;6.534;2023-03-17T09:08:28;6.23;;;2.20;;
53801;SDS011;39709;53.334;6.534;2023-03-17T09:10:54;9.77;;;2.90;;
53801;SDS011;39709;53.334;6.534;2023-03-17T09:13:20;2.33;;;0.40;;
53801;SDS011;39709;53.334;6.534;2023-03-17T09:15:46;1.63;;;0.40;;
53801;SDS011;39709;53.334;6.534;2023-03-17T09:18:12;4.90;;;1.17;;
53801;SDS011;39709;53.334;6.534;2023-03-17T09:20:38;2.15;;;0.38;;
53801;SDS011;39709;53.334;6.534;2023-03-17T09:23:08;3.73;;;0.73;;
53801;SDS011;39709;53.334;6.534;2023-03-17T09:25:35;2.20;;;0.53;;
53801;SDS011;39709;53.334;6.534;2023-03-17T09:28:02;3.28;;;0.57;;
53801;SDS011;39709;53.334;6.534;2023-03-17T09:30:29;1.70;;;0.43;;
53801;SDS011;39709;53.334;6.534;2023-03-17T09:32:55;4.83;;;1.60;;
53801;SDS011;39709;53.334;6.534;2023-03-17T09:35:20;1.75;;;0.45;;
53801;SDS011;39709;53.334;6.534;2023-03-17T09:37:47;4.43;;;0.90;;
53801;SDS011;39709;53.334;6.534;2023-03-17T09:40:15;3.30;;;0.80;;
53801;SDS011;39709;53.334;6.534;2023-03-17T09:50:42;2.72;;;0.60;;
53801;SDS011;39709;53.334;6.534;2023-03-17T09:53:26;5.65;;;2.10;;
53801;SDS011;39709;53.334;6.534;2023-03-17T09:55:58;3.15;;;0.75;;
53801;SDS011;39709;53.334;6.534;2023-03-17T09:58:30;2.95;;;0.60;;
53801;SDS011;39709;53.334;6.534;2023-03-17T10:00:57;6.73;;;2.37;;
53801;SDS011;39709;53.334;6.534;2023-03-17T10:03:24;2.13;;;0.60;;
53801;SDS011;39709;53.334;6.534;2023-03-17T10:05:51;11.60;;;2.22;;
53801;SDS011;39709;53.334;6.534;2023-03-17T10:16:00;2.17;;;0.40;;
53801;SDS011;39709;53.334;6.534;2023-03-17T10:18:32;5.65;;;1.65;;
53801;SDS011;39709;53.334;6.534;2023-03-17T10:21:14;4.22;;;1.23;;
53801;SDS011;39709;53.334;6.534;2023-03-17T10:23:43;2.67;;;0.73;;
53801;SDS011;39709;53.334;6.534;2023-03-17T10:26:16;6.73;;;1.47;;
53801;SDS011;39709;53.334;6.534;2023-03-17T10:28:52;5.68;;;1.60;;
53801;SDS011;39709;53.334;6.534;2023-03-17T10:31:20;4.07;;;1.45;;
53801;SDS011;39709;53.334;6.534;2023-03-17T10:33:52;1.38;;;0.20;;
53801;SDS011;39709;53.334;6.534;2023-03-17T10:39:21;7.00;;;1.53;;
53801;SDS011;39709;53.334;6.534;2023-03-17T10:41:55;7.28;;;2.50;;
53801;SDS011;39709;53.334;6.534;2023-03-17T10:44:40;6.55;;;2.78;;
53801;SDS011;39709;53.334;6.534;2023-03-17T10:49:46;8.00;;;3.00;;
53801;SDS011;39709;53.334;6.534;2023-03-17T10:52:24;7.67;;;2.80;;
53801;SDS011;39709;53.334;6.534;2023-03-17T10:54:52;8.27;;;2.97;;
53801;SDS011;39709;53.334;6.534;2023-03-17T10:57:18;5.53;;;1.58;;
53801;SDS011;39709;53.334;6.534;2023-03-17T10:59:52;8.10;;;2.65;;
53801;SDS011;39709;53.334;6.534;2023-03-17T11:02:24;6.90;;;2.60;;
53801;SDS011;39709;53.334;6.534;2023-03-17T11:04:54;3.70;;;0.97;;
53801;SDS011;39709;53.334;6.534;2023-03-17T11:07:26;6.55;;;2.22;;
53801;SDS011;39709;53.334;6.534;2023-03-17T11:09:59;7.97;;;2.28;;
53801;SDS011;39709;53.334;6.534;2023-03-17T11:12:34;6.97;;;2.50;;
53801;SDS011;39709;53.334;6.534;2023-03-17T11:15:06;4.18;;;0.95;;
53801;SDS011;39709;53.334;6.534;2023-03-17T11:20:39;8.40;;;2.95;;
53801;SDS011;39709;53.334;6.534;2023-03-17T11:29:16;7.13;;;2.65;;
53801;SDS011;39709;53.334;6.534;2023-03-17T11:46:15;5.60;;;2.20;;
53801;SDS011;39709;53.334;6.534;2023-03-17T11:51:56;5.65;;;2.03;;
53801;SDS011;39709;53.334;6.534;2023-03-17T11:54:44;18.40;;;5.00;;
53801;SDS011;39709;53.334;6.534;2023-03-17T11:57:43;8.80;;;3.65;;
53801;SDS011;39709;53.334;6.534;2023-03-17T12:06:04;7.30;;;3.38;;
53801;SDS011;39709;53.334;6.534;2023-03-17T12:08:53;9.80;;;4.00;;
53801;SDS011;39709;53.334;6.534;2023-03-17T12:11:25;11.82;;;3.90;;
53801;SDS011;39709;53.334;6.534;2023-03-17T12:14:06;8.77;;;4.17;;
53801;SDS011;39709;53.334;6.534;2023-03-17T12:16:44;7.13;;;2.40;;
53801;SDS011;39709;53.334;6.534;2023-03-17T12:22:10;9.80;;;4.10;;
53801;SDS011;39709;53.334;6.534;2023-03-17T12:31:05;7.53;;;2.08;;
53801;SDS011;39709;53.334;6.534;2023-03-17T12:34:03;6.97;;;2.15;;
53801;SDS011;39709;53.334;6.534;2023-03-17T12:36:39;6.55;;;2.13;;
53801;SDS011;39709;53.334;6.534;2023-03-17T12:39:13;4.38;;;1.52;;
53801;SDS011;39709;53.334;6.534;2023-03-17T12:49:49;11.45;;;3.90;;
53801;SDS011;39709;53.334;6.534;2023-03-17T12:55:04;10.03;;;4.20;;
53801;SDS011;39709;53.334;6.534;2023-03-17T12:57:40;5.25;;;1.83;;
53801;SDS011;39709;53.334;6.534;2023-03-17T13:00:24;9.35;;;3.22;;
53801;SDS011;39709;53.334;6.534;2023-03-17T13:03:16;6.10;;;2.17;;
53801;SDS011;39709;53.334;6.534;2023-03-17T13:05:50;9.52;;;4.63;;
53801;SDS011;39709;53.334;6.534;2023-03-17T13:08:23;12.88;;;4.57;;
53801;SDS011;39709;53.334;6.534;2023-03-17T13:11:12;12.50;;;4.15;;
53801;SDS011;39709;53.334;6.534;2023-03-17T13:13:45;6.85;;;3.08;;
53801;SDS011;39709;53.334;6.534;2023-03-17T13:19:22;8.65;;;3.83;;
53801;SDS011;39709;53.334;6.534;2023-03-17T13:21:54;11.85;;;5.25;;
53801;SDS011;39709;53.334;6.534;2023-03-17T13:27:40;11.93;;;4.50;;
53801;SDS011;39709;53.334;6.534;2023-03-17T13:29:57;10.27;;;4.17;;
53801;SDS011;39709;53.334;6.534;2023-03-17T13:32:50;9.30;;;4.63;;
53801;SDS011;39709;53.334;6.534;2023-03-17T13:40:57;11.95;;;5.00;;
53801;SDS011;39709;53.334;6.534;2023-03-17T13:52:01;10.73;;;5.32;;
53801;SDS011;39709;53.334;6.534;2023-03-17T13:57:40;13.83;;;6.27;;
53801;SDS011;39709;53.334;6.534;2023-03-17T14:02:40;10.82;;;5.53;;
53801;SDS011;39709;53.334;6.534;2023-03-17T14:05:28;11.57;;;5.60;;
53801;SDS011;39709;53.334;6.534;2023-03-17T14:07:59;11.15;;;5.78;;
53801;SDS011;39709;53.334;6.534;2023-03-17T14:10:29;12.18;;;5.68;;
53801;SDS011;39709;53.334;6.534;2023-03-17T14:13:02;11.57;;;5.10;;
53801;SDS011;39709;53.334;6.534;2023-03-17T14:18:22;10.40;;;5.23;;
53801;SDS011;39709;53.334;6.534;2023-03-17T14:21:04;13.23;;;5.95;;
53801;SDS011;39709;53.334;6.534;2023-03-17T14:23:34;12.60;;;6.47;;
53801;SDS011;39709;53.334;6.534;2023-03-17T14:26:00;13.27;;;5.85;;
53801;SDS011;39709;53.334;6.534;2023-03-17T14:28:34;9.27;;;4.53;;
53801;SDS011;39709;53.334;6.534;2023-03-17T14:31:01;12.30;;;4.73;;
53801;SDS011;39709;53.334;6.534;2023-03-17T14:33:32;12.85;;;5.35;;
53801;SDS011;39709;53.334;6.534;2023-03-17T14:36:08;11.63;;;4.90;;
53801;SDS011;39709;53.334;6.534;2023-03-17T14:38:37;5.47;;;1.85;;
53801;SDS011;39709;53.334;6.534;2023-03-17T14:43:38;11.40;;;5.23;;
53801;SDS011;39709;53.334;6.534;2023-03-17T14:46:12;10.80;;;5.35;;
53801;SDS011;39709;53.334;6.534;2023-03-17T14:48:40;13.70;;;6.13;;
53801;SDS011;39709;53.334;6.534;2023-03-17T14:53:40;10.32;;;4.70;;
53801;SDS011;39709;53.334;6.534;2023-03-17T14:56:09;14.37;;;5.07;;
53801;SDS011;39709;53.334;6.534;2023-03-17T14:58:35;13.10;;;5.70;;
53801;SDS011;39709;53.334;6.534;2023-03-17T15:01:10;14.25;;;6.05;;
53801;SDS011;39709;53.334;6.534;2023-03-17T15:03:39;13.48;;;4.47;;
53801;SDS011;39709;53.334;6.534;2023-03-17T15:06:22;12.27;;;5.07;;
53801;SDS011;39709;53.334;6.534;2023-03-17T15:08:50;12.47;;;5.50;;
53801;SDS011;39709;53.334;6.534;2023-03-17T15:11:20;9.48;;;5.18;;
53801;SDS011;39709;53.334;6.534;2023-03-17T15:13:51;11.35;;;4.95;;
53801;SDS011;39709;53.334;6.534;2023-03-17T15:16:26;9.75;;;4.57;;
53801;SDS011;39709;53.334;6.534;2023-03-17T15:19:06;11.15;;;5.63;;
53801;SDS011;39709;53.334;6.534;2023-03-17T15:21:51;10.70;;;5.20;;
53801;SDS011;39709;53.334;6.534;2023-03-17T15:24:23;5.65;;;2.10;;
53801;SDS011;39709;53.334;6.534;2023-03-17T15:26:49;12.20;;;5.78;;
53801;SDS011;39709;53.334;6.534;2023-03-17T15:29:15;11.73;;;5.75;;
53801;SDS011;39709;53.334;6.534;2023-03-17T15:31:41;10.97;;;5.37;;
53801;SDS011;39709;53.334;6.534;2023-03-17T15:34:08;13.48;;;4.97;;
53801;SDS011;39709;53.334;6.534;2023-03-17T15:36:37;13.03;;;6.10;;
53801;SDS011;39709;53.334;6.534;2023-03-17T15:39:03;14.88;;;6.20;;
53801;SDS011;39709;53.334;6.534;2023-03-17T15:41:28;12.40;;;5.63;;
53801;SDS011;39709;53.334;6.534;2023-03-17T15:43:54;12.35;;;5.40;;
53801;SDS011;39709;53.334;6.534;2023-03-17T15:46:22;13.38;;;5.85;;
53801;SDS011;39709;53.334;6.534;2023-03-17T15:48:51;14.18;;;6.30;;
53801;SDS011;39709;53.334;6.534;2023-03-17T15:51:17;14.77;;;5.87;;
53801;SDS011;39709;53.334;6.534;2023-03-17T15:53:43;14.15;;;6.35;;
53801;SDS011;39709;53.334;6.534;2023-03-17T15:56:18;13.90;;;6.73;;
53801;SDS011;39709;53.334;6.534;2023-03-17T15:58:46;11.30;;;6.03;;
53801;SDS011;39709;53.334;6.534;2023-03-17T16:01:13;13.07;;;6.25;;
53801;SDS011;39709;53.334;6.534;2023-03-17T16:03:40;11.90;;;6.00;;
53801;SDS011;39709;53.334;6.534;2023-03-17T16:06:19;18.15;;;6.20;;
53801;SDS011;39709;53.334;6.534;2023-03-17T16:08:46;14.53;;;6.00;;
53801;SDS011;39709;53.334;6.534;2023-03-17T16:11:17;10.45;;;6.00;;
53801;SDS011;39709;53.334;6.534;2023-03-17T16:13:46;13.10;;;5.88;;
53801;SDS011;39709;53.334;6.534;2023-03-17T16:16:16;11.77;;;5.60;;
53801;SDS011;39709;53.334;6.534;2023-03-17T16:18:45;14.87;;;6.13;;
53801;SDS011;39709;53.334;6.534;2023-03-17T16:21:12;14.07;;;6.38;;
53801;SDS011;39709;53.334;6.534;2023-03-17T16:23:38;13.55;;;6.88;;
53801;SDS011;39709;53.334;6.534;2023-03-17T16:26:04;14.20;;;7.00;;
53801;SDS011;39709;53.334;6.534;2023-03-17T16:28:30;12.57;;;6.47;;
53801;SDS011;39709;53.334;6.534;2023-03-17T16:30:57;10.93;;;5.80;;
53801;SDS011;39709;53.334;6.534;2023-03-17T16:33:32;13.27;;;6.13;;
53801;SDS011;39709;53.334;6.534;2023-03-17T16:36:02;12.65;;;6.38;;
53801;SDS011;39709;53.334;6.534;2023-03-17T16:38:29;13.00;;;7.40;;
53801;SDS011;39709;53.334;6.534;2023-03-17T16:41:00;10.80;;;6.03;;
53801;SDS011;39709;53.334;6.534;2023-03-17T16:43:34;12.52;;;6.28;;
53801;SDS011;39709;53.334;6.534;2023-03-17T16:46:04;15.02;;;6.20;;
53801;SDS011;39709;53.334;6.534;2023-03-17T16:48:31;14.40;;;6.20;;
53801;SDS011;39709;53.334;6.534;2023-03-17T16:50:57;13.80;;;6.10;;